Time;durP1;ratioP1;P1;durP2;ratioP2;P2;SDS_P1;SDS_P2;PMS_P1;PMS_P2;Temp;Humidity;BMP_temperature;BMP_pressure;BME280_temperature;BME280_humidity;BME280_pressure;Samples;Min_cycle;Max_cycle;Signal;HPM_P1;HPM_P2
2023/08/29 00:01:23;;;;;;;5.03;3.75;;;12.50;99.90;;;;;;5017216;28;20038;-70
2023/08/29 00:03:51;;;;;;;7.63;3.95;;;12.50;99.90;;;;;;5022032;28;20031;-70
2023/08/29 00:06:16;;;;;;;7.15;3.90;;;12.50;99.90;;;;;;5022337;28;20041;-70
2023/08/29 00:08:42;;;;;;;6.63;3.50;;;12.50;99.90;;;;;;5002125;28;20069;-70
2023/08/29 00:11:08;;;;;;;4.97;3.05;;;12.50;99.90;;;;;;5019529;28;20488;-71
2023/08/29 00:13:34;;;;;;;3.80;2.80;;;12.40;99.90;;;;;;4992290;28;20030;-70
2023/08/29 00:15:59;;;;;;;3.55;2.53;;;12.40;99.90;;;;;;4987745;28;20483;-70
2023/08/29 00:18:25;;;;;;;3.47;2.30;;;12.30;99.90;;;;;;4988566;28;20034;-70
2023/08/29 00:20:52;;;;;;;3.95;2.70;;;12.20;99.90;;;;;;4995920;28;20061;-70
2023/08/29 00:23:18;;;;;;;5.43;3.08;;;12.20;99.90;;;;;;4995181;28;20042;-70
2023/08/29 00:25:44;;;;;;;9.52;3.30;;;12.10;99.90;;;;;;4999778;28;20044;-70
2023/08/29 00:28:11;;;;;;;6.03;3.13;;;12.10;99.90;;;;;;5015241;28;20041;-71
2023/08/29 00:30:38;;;;;;;4.43;2.80;;;12.00;99.90;;;;;;5035003;28;20042;-70
2023/08/29 00:33:05;;;;;;;4.03;3.13;;;12.00;99.90;;;;;;4994454;28;20042;-70
2023/08/29 00:35:31;;;;;;;4.18;2.75;;;12.00;99.90;;;;;;5050273;28;20097;-71
2023/08/29 00:37:58;;;;;;;4.93;2.97;;;12.00;99.90;;;;;;5042409;28;20077;-70
2023/08/29 00:40:33;;;;;;;5.32;3.38;;;12.00;99.90;;;;;;5004471;28;20571;-71
2023/08/29 00:43:02;;;;;;;6.57;3.08;;;11.90;99.90;;;;;;5009825;28;20034;-71
2023/08/29 00:45:32;;;;;;;5.95;3.55;;;11.90;99.90;;;;;;5017409;28;20053;-71
2023/08/29 00:47:58;;;;;;;4.15;3.15;;;11.90;99.90;;;;;;5010351;28;20037;-70
2023/08/29 00:50:25;;;;;;;5.28;3.13;;;11.90;99.90;;;;;;4980686;28;20045;-71
2023/08/29 00:52:56;;;;;;;4.38;3.22;;;11.90;99.90;;;;;;4994916;28;20049;-71
2023/08/29 00:55:23;;;;;;;8.00;3.70;;;11.90;99.90;;;;;;5032818;28;20578;-70
2023/08/29 00:57:55;;;;;;;3.83;3.15;;;11.90;99.90;;;;;;5030228;28;20037;-70
2023/08/29 01:00:25;;;;;;;;;;;11.90;99.90;;;;;;5025375;28;20034;-70
2023/08/29 01:02:50;;;;;;;4.28;3.40;;;11.90;99.90;;;;;;5010627;28;19918;-70
2023/08/29 01:05:16;;;;;;;5.00;2.90;;;11.80;99.90;;;;;;5037023;28;20057;-70
2023/08/29 01:07:42;;;;;;;3.58;2.95;;;11.80;99.90;;;;;;5004753;28;20447;-70
2023/08/29 01:10:08;;;;;;;3.47;3.17;;;11.80;99.90;;;;;;5003680;28;20050;-70
2023/08/29 01:13:11;;;;;;;4.15;3.10;;;11.80;99.90;;;;;;5032173;28;20181;-70
2023/08/29 01:15:41;;;;;;;4.63;3.70;;;11.80;99.90;;;;;;5025046;28;20057;-70
2023/08/29 01:18:10;;;;;;;8.40;3.60;;;11.80;99.90;;;;;;5032677;28;20033;-70
2023/08/29 01:20:37;;;;;;;4.40;2.90;;;11.80;99.90;;;;;;4992249;28;20041;-70
2023/08/29 01:23:15;;;;;;;3.63;3.20;;;11.80;99.90;;;;;;5036372;28;20113;-70
2023/08/29 01:25:50;;;;;;;4.60;3.45;;;11.80;99.90;;;;;;5042037;28;21554;-70
2023/08/29 01:28:18;;;;;;;7.13;3.55;;;11.70;99.90;;;;;;5020921;28;20053;-70
2023/08/29 01:30:45;;;;;;;7.57;3.97;;;11.70;99.90;;;;;;4981728;28;20044;-70
2023/08/29 01:33:11;;;;;;;4.75;4.15;;;11.70;99.90;;;;;;4994297;28;20049;-70
2023/08/29 01:35:47;;;;;;;6.97;4.07;;;11.70;99.90;;;;;;5012875;28;20549;-70
2023/08/29 01:38:17;;;;;;;5.65;3.30;;;11.80;99.90;;;;;;5004844;28;20034;-70
2023/08/29 01:40:43;;;;;;;7.05;3.60;;;11.70;99.90;;;;;;5001636;28;20185;-70
2023/08/29 01:43:08;;;;;;;4.28;3.25;;;11.70;99.90;;;;;;5040176;28;20134;-70
2023/08/29 01:45:34;;;;;;;4.20;2.90;;;11.70;99.90;;;;;;5011584;28;20557;-70
2023/08/29 01:48:00;;;;;;;4.07;3.45;;;11.60;99.90;;;;;;4996304;28;20067;-70
2023/08/29 01:50:28;;;;;;;8.43;3.53;;;11.50;99.90;;;;;;5000250;28;20095;-70
2023/08/29 01:52:53;;;;;;;10.05;3.85;;;11.50;99.90;;;;;;5011231;28;20050;-70
2023/08/29 01:55:20;;;;;;;6.07;3.60;;;11.50;99.90;;;;;;5023017;28;20053;-70
2023/08/29 01:57:48;;;;;;;4.05;3.50;;;11.50;99.90;;;;;;4998584;28;20041;-70
2023/08/29 02:00:17;;;;;;;4.30;3.50;;;11.40;99.90;;;;;;4984032;28;20038;-70
2023/08/29 02:02:43;;;;;;;5.60;3.22;;;11.50;99.90;;;;;;4994295;28;20491;-70
2023/08/29 02:05:11;;;;;;;5.43;3.15;;;11.50;99.90;;;;;;4995422;28;20133;-70
2023/08/29 02:07:37;;;;;;;3.83;3.20;;;11.50;99.90;;;;;;4997557;28;20058;-70
2023/08/29 02:10:03;;;;;;;4.72;3.45;;;11.40;99.90;;;;;;4991163;28;20045;-70
2023/08/29 02:12:29;;;;;;;6.57;3.40;;;11.40;99.90;;;;;;5022376;28;20055;-71
2023/08/29 02:14:55;;;;;;;5.88;3.58;;;11.40;99.90;;;;;;5001186;28;20030;-70
2023/08/29 02:17:20;;;;;;;6.43;3.58;;;11.40;99.90;;;;;;5000351;28;20508;-70
2023/08/29 02:19:46;;;;;;;5.45;3.92;;;11.40;99.90;;;;;;4990024;28;20117;-70
2023/08/29 02:22:12;;;;;;;6.25;3.47;;;11.40;99.90;;;;;;5016317;28;20042;-70
2023/08/29 02:24:38;;;;;;;4.93;3.45;;;11.40;99.90;;;;;;4972236;28;20043;-71
2023/08/29 02:27:04;;;;;;;7.95;3.47;;;11.40;99.90;;;;;;4976915;28;20074;-71
2023/08/29 02:29:30;;;;;;;4.65;3.60;;;11.40;99.90;;;;;;4960988;28;20052;-71
2023/08/29 02:31:56;;;;;;;6.13;3.80;;;11.40;99.90;;;;;;4996257;28;20214;-71
2023/08/29 02:34:21;;;;;;;5.15;3.83;;;11.30;99.90;;;;;;5009836;28;20046;-71
2023/08/29 02:36:47;;;;;;;8.63;4.13;;;11.30;99.90;;;;;;4993117;28;20038;-71
2023/08/29 02:39:13;;;;;;;5.68;3.88;;;11.30;99.90;;;;;;4987194;28;20046;-71
2023/08/29 02:41:39;;;;;;;4.50;3.35;;;11.30;99.90;;;;;;5018744;28;20065;-71
2023/08/29 02:44:04;;;;;;;5.90;3.35;;;11.30;99.90;;;;;;4992405;28;20037;-70
2023/08/29 02:46:30;;;;;;;7.38;3.78;;;11.30;99.90;;;;;;5006121;28;20035;-70
2023/08/29 02:48:56;;;;;;;5.88;3.60;;;11.30;99.90;;;;;;5023103;28;20117;-70
2023/08/29 02:51:21;;;;;;;4.15;3.08;;;11.30;99.90;;;;;;5032388;28;20029;-71
2023/08/29 02:53:47;;;;;;;5.03;3.10;;;11.30;99.90;;;;;;5030379;28;20475;-71
2023/08/29 02:56:13;;;;;;;4.82;3.28;;;11.20;99.90;;;;;;4966548;28;20514;-71
2023/08/29 02:58:38;;;;;;;7.78;3.00;;;11.30;99.90;;;;;;5041182;28;20041;-71
2023/08/29 03:01:09;;;;;;;6.07;3.05;;;11.20;99.90;;;;;;4999763;28;20053;-71
2023/08/29 03:03:36;;;;;;;5.55;2.90;;;11.10;99.90;;;;;;5011136;28;20038;-71
2023/08/29 03:06:01;;;;;;;3.38;2.85;;;11.10;99.90;;;;;;4999493;28;20053;-71
2023/08/29 03:08:27;;;;;;;4.93;3.05;;;11.10;99.90;;;;;;4991508;28;20062;-71
2023/08/29 03:10:54;;;;;;;3.92;3.35;;;11.10;99.90;;;;;;5025554;28;20081;-71
2023/08/29 03:13:20;;;;;;;5.50;3.33;;;11.10;99.90;;;;;;5032940;28;20451;-71
2023/08/29 03:15:46;;;;;;;7.15;3.47;;;11.10;99.90;;;;;;5009605;28;20034;-71
2023/08/29 03:18:11;;;;;;;3.60;3.25;;;11.10;99.90;;;;;;4994946;28;20038;-71
2023/08/29 03:20:41;;;;;;;3.92;3.50;;;11.00;99.90;;;;;;5036501;28;20046;-71
2023/08/29 03:23:07;;;;;;;4.82;3.65;;;11.10;99.90;;;;;;5030040;28;20041;-71
2023/08/29 03:25:33;;;;;;;5.43;3.85;;;11.00;99.90;;;;;;4995851;28;20179;-71
2023/08/29 03:27:58;;;;;;;5.57;3.60;;;11.00;99.90;;;;;;5037840;28;20369;-71
2023/08/29 03:30:28;;;;;;;4.43;3.47;;;11.00;99.90;;;;;;5001387;28;20280;-71
2023/08/29 03:32:54;;;;;;;5.75;3.10;;;11.00;99.90;;;;;;5012744;28;20084;-71
2023/08/29 03:35:20;;;;;;;4.22;3.00;;;10.90;99.90;;;;;;5012442;28;20078;-71
2023/08/29 03:37:46;;;;;;;6.30;3.00;;;10.90;99.90;;;;;;4979632;28;20474;-71
2023/08/29 03:40:12;;;;;;;5.82;3.25;;;10.90;99.90;;;;;;5004097;28;20137;-71
2023/08/29 03:42:39;;;;;;;6.63;3.10;;;10.80;99.90;;;;;;5005625;28;20491;-71
2023/08/29 03:45:05;;;;;;;4.85;3.08;;;10.80;99.90;;;;;;5020631;28;20041;-71
2023/08/29 03:47:33;;;;;;;4.53;3.00;;;10.70;99.90;;;;;;4999335;28;20035;-71
2023/08/29 03:49:59;;;;;;;9.40;3.10;;;10.70;99.90;;;;;;5022709;28;20076;-71
2023/08/29 03:52:29;;;;;;;6.28;2.90;;;10.60;99.90;;;;;;4979996;28;20088;-71
2023/08/29 03:54:55;;;;;;;3.60;2.78;;;10.60;99.90;;;;;;5043304;28;20029;-71
2023/08/29 03:57:26;;;;;;;5.00;2.80;;;10.60;99.90;;;;;;5000592;28;20047;-71
2023/08/29 03:59:52;;;;;;;3.55;2.97;;;10.50;99.90;;;;;;5038685;28;20043;-71
2023/08/29 04:02:18;;;;;;;7.00;3.08;;;10.60;99.90;;;;;;4996739;28;20042;-71
2023/08/29 04:04:44;;;;;;;4.32;3.63;;;10.60;99.90;;;;;;5012423;28;20042;-71
2023/08/29 04:07:13;;;;;;;6.50;3.40;;;10.50;99.90;;;;;;5003092;28;20046;-71
2023/08/29 04:09:39;;;;;;;5.57;3.30;;;10.60;99.90;;;;;;5009081;28;20065;-71
2023/08/29 04:12:08;;;;;;;7.18;3.22;;;10.60;99.90;;;;;;5024556;28;20124;-71
2023/08/29 04:14:34;;;;;;;5.90;3.28;;;10.60;99.90;;;;;;5023716;28;20045;-71
2023/08/29 04:17:00;;;;;;;4.93;3.30;;;10.60;99.90;;;;;;5001487;28;20031;-71
2023/08/29 04:19:26;;;;;;;3.88;3.20;;;10.60;99.90;;;;;;5003721;28;20049;-71
2023/08/29 04:21:52;;;;;;;6.10;3.60;;;10.50;99.90;;;;;;4966868;28;20143;-71
2023/08/29 04:24:18;;;;;;;4.43;3.38;;;10.60;99.90;;;;;;4995113;28;20516;-71
2023/08/29 04:26:43;;;;;;;6.18;3.85;;;10.50;99.90;;;;;;5022729;28;20136;-71
2023/08/29 04:29:09;;;;;;;9.02;4.82;;;10.50;99.90;;;;;;5011534;28;20042;-71
2023/08/29 04:31:35;;;;;;;6.53;4.57;;;10.50;99.90;;;;;;5017680;28;20033;-72
2023/08/29 04:34:01;;;;;;;6.03;4.88;;;10.50;99.90;;;;;;5041617;28;20038;-71
2023/08/29 04:36:27;;;;;;;6.07;4.50;;;10.50;99.90;;;;;;5008852;28;20047;-71
2023/08/29 04:38:52;;;;;;;6.25;4.70;;;10.50;99.90;;;;;;5021989;28;20474;-72
2023/08/29 04:41:18;;;;;;;6.68;4.20;;;10.50;99.90;;;;;;5027620;28;20034;-72
2023/08/29 04:43:44;;;;;;;5.32;4.10;;;10.50;99.90;;;;;;4971182;28;20487;-71
2023/08/29 04:46:09;;;;;;;4.82;3.80;;;10.50;99.90;;;;;;5008721;28;20049;-71
2023/08/29 04:48:36;;;;;;;5.43;3.97;;;10.40;99.90;;;;;;4999992;28;20527;-71
2023/08/29 04:51:05;;;;;;;7.45;4.95;;;10.40;99.90;;;;;;5006752;28;20425;-72
2023/08/29 04:53:32;;;;;;;6.78;4.85;;;10.40;99.90;;;;;;5001674;28;20125;-72
2023/08/29 04:56:02;;;;;;;6.97;4.75;;;10.40;99.90;;;;;;5007122;28;20041;-72
2023/08/29 04:58:28;;;;;;;6.88;4.63;;;10.40;99.90;;;;;;5017557;28;20038;-72
2023/08/29 05:00:54;;;;;;;7.47;5.50;;;10.40;99.90;;;;;;5025130;28;20041;-72
2023/08/29 05:03:21;;;;;;;8.10;5.50;;;10.40;99.90;;;;;;5016242;28;20041;-72
2023/08/29 05:05:47;;;;;;;9.05;5.82;;;10.40;99.90;;;;;;5006242;28;20040;-72
2023/08/29 05:08:13;;;;;;;5.78;5.18;;;10.40;99.90;;;;;;5015254;28;20623;-72
2023/08/29 05:10:40;;;;;;;6.63;5.47;;;10.40;99.90;;;;;;5022881;28;20520;-72
2023/08/29 05:13:06;;;;;;;6.18;4.30;;;10.40;99.90;;;;;;5002643;28;20514;-72
2023/08/29 05:15:32;;;;;;;5.53;4.05;;;10.40;99.90;;;;;;4982702;28;20038;-72
2023/08/29 05:17:58;;;;;;;5.82;3.50;;;10.40;99.90;;;;;;5011189;28;20379;-72
2023/08/29 05:20:24;;;;;;;6.45;4.50;;;10.40;99.90;;;;;;5004255;28;20121;-72
2023/08/29 05:22:50;;;;;;;5.32;4.45;;;10.40;99.90;;;;;;5020854;28;20049;-72
2023/08/29 05:25:16;;;;;;;6.90;5.25;;;10.40;99.90;;;;;;5035387;28;20034;-72
2023/08/29 05:27:42;;;;;;;7.03;4.90;;;10.40;99.90;;;;;;4997359;28;20070;-72
2023/08/29 05:30:08;;;;;;;8.32;5.40;;;10.40;99.90;;;;;;5014731;28;20117;-73
2023/08/29 05:32:35;;;;;;;9.43;5.50;;;10.40;99.90;;;;;;5010714;28;20029;-72
2023/08/29 05:35:02;;;;;;;6.82;5.68;;;10.40;99.90;;;;;;4990309;28;20037;-72
2023/08/29 05:37:28;;;;;;;6.25;5.15;;;10.40;99.90;;;;;;4978140;28;20503;-72
2023/08/29 05:39:54;;;;;;;6.45;4.72;;;10.40;99.90;;;;;;5034635;28;20042;-72
2023/08/29 05:42:19;;;;;;;7.20;5.68;;;10.40;99.90;;;;;;4981429;28;20070;-72
2023/08/29 05:44:45;;;;;;;5.68;4.93;;;10.50;99.90;;;;;;4972829;28;20030;-73
2023/08/29 05:47:11;;;;;;;5.18;4.68;;;10.50;99.90;;;;;;4990884;28;20034;-72
2023/08/29 05:49:37;;;;;;;6.53;4.55;;;10.50;99.90;;;;;;5003733;28;20042;-72
2023/08/29 05:52:03;;;;;;;7.88;4.55;;;10.50;99.90;;;;;;4998704;28;20050;-72
2023/08/29 05:54:29;;;;;;;7.15;5.13;;;10.60;99.90;;;;;;4985296;28;20504;-72
2023/08/29 05:56:55;;;;;;;6.85;5.40;;;10.60;99.90;;;;;;4982441;28;20188;-72
2023/08/29 05:59:21;;;;;;;7.60;5.30;;;10.60;99.90;;;;;;5029277;28;20125;-72
2023/08/29 06:01:47;;;;;;;6.18;5.18;;;10.60;99.90;;;;;;5002866;28;20049;-72
2023/08/29 06:04:13;;;;;;;7.50;5.50;;;10.70;99.90;;;;;;4995726;28;20494;-72
2023/08/29 06:06:39;;;;;;;6.40;5.28;;;10.80;99.90;;;;;;5000378;28;20125;-72
2023/08/29 06:09:09;;;;;;;8.82;5.63;;;10.80;99.90;;;;;;5018848;28;20054;-72
2023/08/29 06:11:35;;;;;;;7.32;5.50;;;10.90;99.90;;;;;;5021617;28;20042;-72
2023/08/29 06:14:01;;;;;;;9.40;6.05;;;11.00;99.90;;;;;;5018002;28;20479;-73
2023/08/29 06:16:27;;;;;;;7.25;5.32;;;11.00;99.90;;;;;;4995274;28;20034;-73
2023/08/29 06:18:53;;;;;;;7.43;5.80;;;11.10;99.90;;;;;;5020108;28;20057;-73
2023/08/29 06:21:19;;;;;;;9.60;5.95;;;11.20;99.90;;;;;;5016147;28;20570;-72
2023/08/29 06:23:45;;;;;;;7.07;6.05;;;11.30;99.90;;;;;;4954865;28;20093;-73
2023/08/29 06:26:11;;;;;;;8.90;5.70;;;11.30;99.90;;;;;;4990336;28;20474;-72
2023/08/29 06:28:37;;;;;;;10.50;5.22;;;11.40;99.90;;;;;;4986877;28;20042;-72
2023/08/29 06:31:04;;;;;;;8.52;6.10;;;11.50;99.90;;;;;;5003829;28;20037;-72
2023/08/29 06:33:30;;;;;;;7.00;6.30;;;11.50;99.90;;;;;;5012649;28;20487;-72
2023/08/29 06:35:56;;;;;;;6.97;5.32;;;11.60;99.90;;;;;;5018046;28;20038;-72
2023/08/29 06:38:22;;;;;;;7.68;5.93;;;11.70;99.90;;;;;;5034983;28;20376;-72
2023/08/29 06:40:57;;;;;;;8.23;6.20;;;11.80;99.90;;;;;;4997867;28;20045;-73
2023/08/29 06:43:23;;;;;;;8.77;6.30;;;11.80;99.90;;;;;;4973626;28;20040;-73
2023/08/29 06:45:49;;;;;;;7.57;5.60;;;11.90;99.90;;;;;;5044401;28;20081;-72
2023/08/29 06:48:15;;;;;;;7.32;5.93;;;12.00;99.90;;;;;;4991676;28;20042;-73
2023/08/29 06:50:41;;;;;;;8.57;6.53;;;12.10;99.90;;;;;;4980904;28;20081;-72
2023/08/29 06:53:07;;;;;;;7.57;6.22;;;12.20;99.90;;;;;;4994949;28;20073;-73
2023/08/29 06:55:34;;;;;;;9.73;5.22;;;12.30;99.90;;;;;;5017961;28;20067;-73
2023/08/29 06:58:02;;;;;;;7.72;6.18;;;12.40;99.90;;;;;;4999559;28;20506;-72
2023/08/29 07:00:28;;;;;;;9.27;6.13;;;12.50;99.90;;;;;;5042453;28;20181;-72
2023/08/29 07:02:54;;;;;;;11.43;6.18;;;12.50;99.90;;;;;;4983246;28;20050;-72
2023/08/29 07:05:20;;;;;;;7.88;5.45;;;12.60;99.90;;;;;;5025605;28;20060;-72
2023/08/29 07:07:46;;;;;;;7.80;5.50;;;12.70;99.90;;;;;;5016495;28;20137;-72
2023/08/29 07:10:12;;;;;;;9.55;5.60;;;12.80;99.90;;;;;;5004248;28;20049;-72
2023/08/29 07:12:37;;;;;;;7.90;5.68;;;12.90;99.90;;;;;;4997972;28;20140;-72
2023/08/29 07:15:03;;;;;;;8.60;5.50;;;13.00;99.90;;;;;;4995437;28;20037;-72
2023/08/29 07:17:29;;;;;;;7.97;5.32;;;13.00;99.90;;;;;;5012197;28;20037;-72
2023/08/29 07:19:55;;;;;;;7.72;5.13;;;13.10;99.90;;;;;;4987242;28;20538;-72
2023/08/29 07:22:21;;;;;;;10.57;5.40;;;13.10;99.90;;;;;;5006219;28;20133;-72
2023/08/29 07:24:47;;;;;;;7.68;5.93;;;13.20;99.90;;;;;;5015656;28;20059;-72
2023/08/29 07:27:12;;;;;;;6.07;5.00;;;13.30;99.90;;;;;;5018429;28;21519;-72
2023/08/29 07:29:39;;;;;;;7.53;5.45;;;13.40;99.90;;;;;;4984315;28;20041;-72
2023/08/29 07:32:05;;;;;;;5.75;4.50;;;13.50;99.90;;;;;;5020627;28;20502;-73
2023/08/29 07:34:31;;;;;;;9.43;4.60;;;13.50;99.90;;;;;;4999309;28;20497;-72
2023/08/29 07:36:56;;;;;;;6.72;4.65;;;13.70;99.90;;;;;;5001950;28;20045;-72
2023/08/29 07:39:24;;;;;;;11.40;5.38;;;13.80;99.90;;;;;;5005768;28;20091;-73
2023/08/29 07:41:50;;;;;;;7.70;5.78;;;13.90;99.90;;;;;;5005768;28;20108;-73
2023/08/29 07:44:16;;;;;;;4.95;3.92;;;14.00;99.90;;;;;;5003953;28;20046;-73
2023/08/29 07:46:41;;;;;;;6.53;4.13;;;14.20;99.90;;;;;;5004386;28;20092;-71
2023/08/29 07:49:13;;;;;;;7.10;3.53;;;14.40;99.90;;;;;;5005561;28;21392;-73
2023/08/29 07:51:42;;;;;;;4.43;2.93;;;14.60;99.90;;;;;;5003658;28;20434;-72
2023/08/29 07:54:09;;;;;;;3.97;2.60;;;14.70;99.90;;;;;;5015675;28;20494;-72
2023/08/29 07:56:34;;;;;;;4.90;2.88;;;14.80;99.90;;;;;;5028026;28;20057;-73
2023/08/29 07:59:00;;;;;;;4.43;2.38;;;14.90;99.90;;;;;;4999034;28;20036;-73
2023/08/29 08:01:26;;;;;;;3.53;2.67;;;15.10;99.90;;;;;;5015367;28;20033;-73
2023/08/29 08:03:52;;;;;;;3.15;2.70;;;15.30;99.90;;;;;;4999319;28;20398;-73
2023/08/29 08:06:17;;;;;;;3.38;2.17;;;15.50;99.90;;;;;;5002107;28;20096;-72
2023/08/29 08:08:43;;;;;;;3.00;2.30;;;15.70;99.90;;;;;;4996092;28;20597;-73
2023/08/29 08:11:09;;;;;;;3.47;1.95;;;15.90;99.90;;;;;;4997378;28;20049;-72
2023/08/29 08:13:35;;;;;;;2.25;1.83;;;15.90;99.90;;;;;;5012731;28;20060;-72
2023/08/29 08:16:01;;;;;;;3.88;2.30;;;16.10;99.90;;;;;;4990235;28;20502;-73
2023/08/29 08:18:26;;;;;;;8.57;2.05;;;16.20;99.90;;;;;;5004367;28;20128;-72
2023/08/29 08:20:52;;;;;;;5.40;1.80;;;16.40;99.90;;;;;;5005137;28;20534;-72
2023/08/29 08:23:18;;;;;;;3.75;1.60;;;16.40;99.90;;;;;;5005705;28;20037;-72
2023/08/29 08:25:44;;;;;;;3.25;1.73;;;16.50;99.90;;;;;;5010121;28;20440;-71
2023/08/29 08:28:10;;;;;;;3.28;1.58;;;16.50;99.90;;;;;;4993329;28;20037;-73
2023/08/29 08:30:39;;;;;;;1.77;1.52;;;16.60;99.90;;;;;;4993935;28;20072;-73
2023/08/29 08:33:06;;;;;;;2.38;1.35;;;16.70;99.90;;;;;;5021149;28;20077;-72
2023/08/29 08:35:32;;;;;;;2.42;1.23;;;16.80;99.90;;;;;;4990255;28;20096;-72
2023/08/29 08:37:58;;;;;;;3.10;1.30;;;16.90;99.90;;;;;;5008042;28;20107;-73
2023/08/29 08:40:24;;;;;;;1.90;1.23;;;16.90;99.90;;;;;;4993828;28;20477;-72
2023/08/29 08:42:49;;;;;;;1.52;1.02;;;17.00;99.90;;;;;;4988890;28;20120;-69
2023/08/29 08:45:16;;;;;;;2.55;1.17;;;17.00;99.90;;;;;;5039913;28;20034;-70
2023/08/29 08:47:43;;;;;;;2.65;1.35;;;17.00;99.90;;;;;;4994687;28;20037;-69
2023/08/29 08:50:09;;;;;;;4.47;1.08;;;17.00;99.90;;;;;;5007681;28;20056;-70
2023/08/29 08:52:36;;;;;;;4.90;1.17;;;17.00;99.90;;;;;;4992963;28;20042;-69
2023/08/29 08:55:02;;;;;;;3.67;1.20;;;17.00;99.90;;;;;;5020882;28;20037;-69
2023/08/29 08:57:28;;;;;;;3.00;1.55;;;17.00;99.90;;;;;;5010559;28;20068;-71
2023/08/29 08:59:54;;;;;;;3.42;1.30;;;17.00;99.90;;;;;;5007994;28;20555;-71
2023/08/29 09:02:20;;;;;;;0.82;0.77;;;17.10;99.90;;;;;;5002656;28;20038;-71
2023/08/29 09:04:46;;;;;;;2.88;1.42;;;17.00;99.90;;;;;;4994396;28;20057;-72
2023/08/29 09:07:12;;;;;;;2.88;1.52;;;17.10;99.90;;;;;;5020781;28;20064;-72
2023/08/29 09:09:38;;;;;;;3.35;1.20;;;17.10;99.90;;;;;;5023385;28;20503;-72
2023/08/29 09:12:04;;;;;;;2.42;1.20;;;17.10;99.90;;;;;;5010166;28;20056;-72
2023/08/29 09:14:31;;;;;;;3.60;1.40;;;17.20;99.90;;;;;;4990525;28;20102;-71
2023/08/29 09:16:59;;;;;;;1.02;0.90;;;17.30;99.90;;;;;;5006353;28;20844;-71
2023/08/29 09:19:26;;;;;;;2.53;1.13;;;17.30;99.90;;;;;;4991324;28;20144;-70
2023/08/29 09:21:52;;;;;;;1.73;1.50;;;17.40;99.90;;;;;;5008979;28;20152;-73
2023/08/29 09:24:38;;;;;;;2.25;1.25;;;17.60;99.90;;;;;;4995084;28;20544;-71
2023/08/29 09:27:10;;;;;;;3.78;1.20;;;17.70;99.90;;;;;;5045791;28;20065;-71
2023/08/29 09:29:36;;;;;;;;;;;17.90;99.90;;;;;;4997682;28;20100;-71
2023/08/29 09:32:13;;;;;;;1.63;1.08;;;18.10;99.90;;;;;;5026804;28;19921;-72
2023/08/29 09:34:39;;;;;;;8.13;1.15;;;18.30;99.90;;;;;;5026581;28;20041;-72
2023/08/29 09:37:05;;;;;;;2.17;1.13;;;18.40;99.90;;;;;;5014519;28;20037;-72
2023/08/29 09:39:31;;;;;;;0.93;0.75;;;18.50;99.90;;;;;;5014278;28;20030;-72
2023/08/29 09:41:59;;;;;;;1.55;1.00;;;18.70;99.90;;;;;;4999009;28;21068;-73
2023/08/29 09:44:25;;;;;;;5.45;0.98;;;18.60;99.90;;;;;;5032550;28;20029;-73
2023/08/29 09:46:51;;;;;;;1.42;0.75;;;18.60;99.90;;;;;;5002804;28;20075;-72
2023/08/29 09:49:17;;;;;;;1.13;0.90;;;18.70;99.90;;;;;;4998474;28;20311;-72
2023/08/29 09:51:43;;;;;;;0.98;0.57;;;18.80;99.90;;;;;;5016805;28;20069;-72
2023/08/29 09:54:12;;;;;;;2.72;0.88;;;18.90;99.90;;;;;;5015808;28;20052;-73
2023/08/29 09:56:41;;;;;;;2.30;1.05;;;18.80;99.90;;;;;;4991028;28;20093;-72
2023/08/29 09:59:12;;;;;;;2.00;0.80;;;18.70;99.90;;;;;;5030839;28;20038;-72
2023/08/29 10:01:43;;;;;;;2.05;1.08;;;18.60;99.90;;;;;;5010145;28;20048;-72
2023/08/29 10:04:11;;;;;;;3.70;1.20;;;18.60;99.90;;;;;;5012968;28;20046;-72
2023/08/29 10:06:38;;;;;;;1.13;0.80;;;18.60;99.90;;;;;;5035445;28;20042;-71
2023/08/29 10:09:05;;;;;;;2.85;1.05;;;18.60;99.90;;;;;;4991450;28;20073;-71
2023/08/29 10:11:32;;;;;;;2.38;0.95;;;18.60;99.90;;;;;;4997780;28;20117;-72
2023/08/29 10:13:58;;;;;;;2.50;1.30;;;18.60;99.90;;;;;;5013626;28;20056;-72
2023/08/29 10:16:25;;;;;;;1.98;1.00;;;18.70;99.90;;;;;;4989404;28;20041;-72
2023/08/29 10:18:51;;;;;;;3.08;1.52;;;18.80;99.90;;;;;;4994320;28;20122;-72
2023/08/29 10:21:21;;;;;;;2.50;0.80;;;18.90;99.90;;;;;;4998038;28;20037;-70
2023/08/29 10:23:53;;;;;;;1.88;0.77;;;19.10;99.90;;;;;;5024574;28;20040;-72
2023/08/29 10:26:20;;;;;;;2.53;1.03;;;19.20;99.90;;;;;;4988264;28;20565;-71
2023/08/29 10:28:47;;;;;;;2.70;1.00;;;19.30;99.90;;;;;;5033253;28;20076;-72
2023/08/29 10:31:15;;;;;;;2.83;1.00;;;19.40;99.90;;;;;;5000211;28;20049;-71
2023/08/29 10:33:40;;;;;;;1.77;1.08;;;19.60;99.90;;;;;;5027698;28;20042;-71
2023/08/29 10:36:08;;;;;;;0.77;0.63;;;19.70;99.90;;;;;;4998870;28;20107;-71
2023/08/29 10:38:39;;;;;;;3.92;0.95;;;19.70;99.90;;;;;;5015536;28;20399;-70
2023/08/29 10:41:09;;;;;;;1.42;0.80;;;19.60;99.90;;;;;;5013980;28;20056;-70
2023/08/29 10:43:35;;;;;;;2.97;1.02;;;19.50;99.90;;;;;;5032325;28;20124;-70
2023/08/29 10:46:10;;;;;;;3.50;1.48;;;19.40;99.90;;;;;;5013622;28;20053;-70
2023/08/29 10:48:39;;;;;;;4.32;1.00;;;19.40;99.90;;;;;;5013863;28;20034;-71
2023/08/29 10:51:09;;;;;;;2.75;1.10;;;19.40;99.90;;;;;;5026494;28;20046;-71
2023/08/29 10:53:38;;;;;;;1.50;0.90;;;19.50;99.90;;;;;;5013063;28;20616;-71
2023/08/29 10:56:10;;;;;;;2.42;0.73;;;19.50;99.90;;;;;;5015192;28;20034;-70
2023/08/29 10:58:41;;;;;;;0.98;0.98;;;19.40;99.90;;;;;;5028591;28;20037;-71
2023/08/29 11:01:30;;;;;;;3.78;1.10;;;19.30;99.90;;;;;;5026925;28;20040;-71
2023/08/29 11:03:58;;;;;;;2.90;0.82;;;19.20;99.90;;;;;;5035065;28;20100;-70
2023/08/29 11:06:25;;;;;;;1.75;0.70;;;19.30;99.90;;;;;;4989610;28;20038;-70
2023/08/29 11:09:20;;;;;;;2.17;1.05;;;19.30;99.90;;;;;;5017077;28;20053;-70
2023/08/29 11:12:08;;;;;;;2.35;1.02;;;19.50;99.90;;;;;;5026639;28;20055;-70
2023/08/29 11:14:55;;;;;;;1.40;0.90;;;19.70;99.90;;;;;;4996408;28;20517;-70
2023/08/29 11:17:25;;;;;;;2.60;0.90;;;19.90;99.90;;;;;;5009146;28;20427;-70
2023/08/29 11:19:51;;;;;;;1.17;0.80;;;19.90;99.90;;;;;;5013754;28;20056;-70
2023/08/29 11:22:19;;;;;;;2.72;0.80;;;19.90;99.90;;;;;;5014333;28;20034;-70
2023/08/29 11:24:45;;;;;;;0.80;0.80;;;19.80;99.90;;;;;;5016401;28;20038;-71
2023/08/29 11:27:16;;;;;;;1.27;1.00;;;19.80;99.90;;;;;;5011576;28;20115;-70
2023/08/29 11:29:41;;;;;;;2.45;0.93;;;19.70;99.90;;;;;;5027132;28;20046;-70
2023/08/29 11:32:07;;;;;;;1.15;0.60;;;19.60;99.90;;;;;;5008074;28;20038;-70
2023/08/29 11:34:35;;;;;;;1.38;0.90;;;19.60;99.90;;;;;;4997283;28;20459;-70
2023/08/29 11:37:01;;;;;;;1.55;1.00;;;19.50;99.90;;;;;;5022515;28;20561;-70
2023/08/29 11:39:27;;;;;;;2.30;1.10;;;19.60;99.90;;;;;;5028537;28;20037;-70
2023/08/29 11:41:54;;;;;;;2.30;1.10;;;19.60;99.90;;;;;;4988399;28;20416;-70
2023/08/29 11:44:20;;;;;;;2.67;1.27;;;19.60;99.90;;;;;;5011722;28;20037;-70
2023/08/29 11:46:46;;;;;;;1.42;1.00;;;19.50;99.90;;;;;;5030419;28;20076;-70
2023/08/29 11:49:13;;;;;;;1.55;0.90;;;19.50;99.90;;;;;;5000441;28;20042;-70
2023/08/29 11:51:39;;;;;;;3.33;1.10;;;19.40;99.90;;;;;;5000037;28;20462;-70
2023/08/29 11:54:25;;;;;;;1.67;1.48;;;19.30;99.90;;;;;;4996600;28;20464;-69
2023/08/29 11:56:55;;;;;;;1.52;0.70;;;19.30;99.90;;;;;;5008662;28;20038;-70
2023/08/29 11:59:21;;;;;;;1.55;1.00;;;19.30;99.90;;;;;;5001931;28;20049;-70
2023/08/29 12:01:47;;;;;;;2.38;1.10;;;19.20;99.90;;;;;;5027048;28;20484;-70
2023/08/29 12:04:13;;;;;;;1.27;0.90;;;19.20;99.90;;;;;;4999895;28;20085;-69
2023/08/29 12:06:38;;;;;;;0.80;0.80;;;19.10;99.90;;;;;;5024187;28;20038;-70
2023/08/29 12:09:04;;;;;;;3.30;1.50;;;19.10;99.90;;;;;;5028635;28;20127;-70
2023/08/29 12:11:42;;;;;;;1.27;0.70;;;19.10;99.90;;;;;;5012563;28;20038;-70
2023/08/29 12:14:08;;;;;;;2.83;0.90;;;19.00;99.90;;;;;;4988644;28;20046;-70
2023/08/29 12:16:33;;;;;;;1.55;0.77;;;19.00;99.90;;;;;;4999136;28;20444;-70
2023/08/29 12:19:07;;;;;;;0.75;0.75;;;18.90;99.90;;;;;;4998361;28;20042;-70
2023/08/29 12:21:33;;;;;;;3.10;1.00;;;18.90;99.90;;;;;;5037179;28;20572;-70
2023/08/29 12:24:10;;;;;;;2.25;0.93;;;18.80;99.90;;;;;;5008139;28;20431;-70
2023/08/29 12:26:36;;;;;;;2.47;1.05;;;18.80;99.90;;;;;;5054156;28;20153;-70
2023/08/29 12:29:02;;;;;;;1.33;1.20;;;18.80;99.90;;;;;;4993093;28;20133;-70
2023/08/29 12:31:27;;;;;;;2.22;1.00;;;18.70;99.90;;;;;;5036070;28;20042;-70
2023/08/29 12:33:53;;;;;;;2.13;1.30;;;18.60;99.90;;;;;;5020791;28;20109;-70
2023/08/29 12:36:19;;;;;;;2.72;1.80;;;18.60;99.90;;;;;;5029408;28;20570;-70
2023/08/29 12:38:45;;;;;;;2.55;1.50;;;18.50;99.90;;;;;;5012556;28;20038;-70
2023/08/29 12:41:12;;;;;;;3.20;1.55;;;18.40;99.90;;;;;;5011400;28;20458;-70
2023/08/29 12:43:40;;;;;;;3.45;1.80;;;18.30;99.90;;;;;;5002742;28;20049;-71
2023/08/29 12:46:06;;;;;;;2.40;1.90;;;18.30;99.90;;;;;;4980272;28;20044;-71
2023/08/29 12:48:32;;;;;;;2.55;1.65;;;18.20;99.90;;;;;;4992538;28;20415;-70